createdAt,value
2019-05-30T00:02:07.458Z,9.20
2019-05-30T00:04:36.833Z,9.10
2019-05-30T00:07:05.554Z,9.10
2019-05-30T00:09:34.151Z,9.10
2019-05-30T00:12:03.039Z,9.10
2019-05-30T00:14:31.580Z,9.10
2019-05-30T00:17:00.932Z,9.00
2019-05-30T00:19:33.040Z,9.00
2019-05-30T00:22:00.759Z,8.90
2019-05-30T00:24:29.340Z,8.90
2019-05-30T00:26:58.280Z,8.80
2019-05-30T00:29:26.791Z,8.80
2019-05-30T00:31:55.536Z,8.70
2019-05-30T00:34:24.097Z,8.70
2019-05-30T00:36:52.579Z,8.70
2019-05-30T00:39:21.124Z,8.70
2019-05-30T00:41:49.579Z,8.60
2019-05-30T00:44:18.080Z,8.60
2019-05-30T00:46:46.541Z,8.50
2019-05-30T00:49:15.036Z,8.50
2019-05-30T00:51:43.497Z,8.50
2019-05-30T00:54:11.979Z,8.50
2019-05-30T00:56:40.442Z,8.50
2019-05-30T00:59:09.009Z,8.40
2019-05-30T01:01:37.461Z,8.40
2019-05-30T01:04:07.133Z,8.40
2019-05-30T01:06:35.745Z,8.40
2019-05-30T01:09:07.315Z,8.30
2019-05-30T01:11:35.984Z,8.30
2019-05-30T01:14:05.399Z,8.30
2019-05-30T01:16:34.032Z,8.20
2019-05-30T01:19:03.210Z,8.20
2019-05-30T01:21:31.724Z,8.20
2019-05-30T01:24:01.319Z,8.20
2019-05-30T01:26:29.933Z,8.10
2019-05-30T01:28:59.324Z,8.10
2019-05-30T01:31:28.093Z,8.10
2019-05-30T01:33:57.470Z,8.00
2019-05-30T01:36:26.017Z,8.00
2019-05-30T01:38:54.592Z,8.00
2019-05-30T01:41:23.109Z,8.00
2019-05-30T01:43:51.660Z,7.90
2019-05-30T01:46:20.128Z,7.90
2019-05-30T01:48:48.616Z,7.90
2019-05-30T01:51:17.073Z,7.90
2019-05-30T01:53:45.637Z,7.90
2019-05-30T01:56:14.242Z,7.80
2019-05-30T01:58:42.801Z,7.80
2019-05-30T02:01:22.364Z,7.80
2019-05-30T02:03:41.555Z,7.80
2019-05-30T02:06:10.088Z,7.80
2019-05-30T02:08:38.552Z,7.80
2019-05-30T02:11:19.647Z,7.70
2019-05-30T02:13:47.881Z,7.70
2019-05-30T02:16:16.364Z,7.60
2019-05-30T02:18:44.824Z,7.60
2019-05-30T02:21:13.365Z,7.70
2019-05-30T02:23:41.827Z,7.70
2019-05-30T02:26:10.621Z,7.70
2019-05-30T02:28:39.227Z,7.60
2019-05-30T02:31:09.673Z,7.60
2019-05-30T02:33:38.040Z,7.60
2019-05-30T02:36:08.444Z,7.60
2019-05-30T02:38:36.779Z,7.50
2019-05-30T02:41:06.208Z,7.50
2019-05-30T02:43:35.611Z,7.50
2019-05-30T02:46:05.956Z,7.40
2019-05-30T02:48:34.422Z,7.50
2019-05-30T02:51:03.393Z,7.50
2019-05-30T02:53:31.936Z,7.50
2019-05-30T02:56:01.421Z,7.40
2019-05-30T02:58:29.960Z,7.40
2019-05-30T03:00:58.527Z,7.40
2019-05-30T03:03:27.056Z,7.40
2019-05-30T03:05:57.216Z,7.30
2019-05-30T03:08:26.845Z,7.30
2019-05-30T03:10:55.406Z,7.30
2019-05-30T03:13:24.086Z,7.30
2019-05-30T03:15:52.710Z,7.30
2019-05-30T03:18:21.309Z,7.20
2019-05-30T03:20:49.870Z,7.20
2019-05-30T03:23:18.408Z,7.20
2019-05-30T03:25:47.052Z,7.20
2019-05-30T03:28:15.654Z,7.20
2019-05-30T03:30:46.032Z,7.20
2019-05-30T03:33:31.516Z,7.20
2019-05-30T03:35:45.210Z,7.20
2019-05-30T03:38:15.625Z,7.20
2019-05-30T03:40:43.969Z,7.20
2019-05-30T03:43:13.854Z,7.10
2019-05-30T03:45:44.145Z,7.10
2019-05-30T03:48:16.200Z,7.10
2019-05-30T03:50:48.189Z,7.00
2019-05-30T03:53:16.793Z,7.10
2019-05-30T03:55:48.421Z,7.10
2019-05-30T03:58:42.191Z,7.10
2019-05-30T04:01:16.527Z,7.10
2019-05-30T04:03:51.099Z,7.20
2019-05-30T04:06:31.328Z,7.20
2019-05-30T04:09:09.077Z,7.30
2019-05-30T04:11:43.712Z,7.30
2019-05-30T04:14:15.882Z,7.40
2019-05-30T04:16:44.476Z,7.40
2019-05-30T04:19:14.967Z,7.50
2019-05-30T04:21:43.133Z,7.60
2019-05-30T04:24:12.351Z,7.60
2019-05-30T04:26:41.887Z,7.70
2019-05-30T04:29:12.035Z,7.80
2019-05-30T04:31:40.611Z,7.80
2019-05-30T04:34:10.014Z,7.90
2019-05-30T04:36:38.650Z,8.00
2019-05-30T04:39:08.874Z,8.10
2019-05-30T04:41:37.486Z,8.20
2019-05-30T04:44:06.036Z,8.30
2019-05-30T04:46:34.578Z,8.40
2019-05-30T04:49:03.134Z,8.40
2019-05-30T04:51:31.798Z,8.60
2019-05-30T04:54:00.360Z,8.60
2019-05-30T04:56:28.901Z,8.80
2019-05-30T04:58:57.626Z,8.80
2019-05-30T05:01:26.165Z,8.90
2019-05-30T05:03:54.741Z,9.10
2019-05-30T05:06:23.278Z,9.20
2019-05-30T05:08:51.838Z,9.30
2019-05-30T05:11:22.872Z,9.40
2019-05-30T05:13:50.578Z,9.50
2019-05-30T05:16:31.313Z,9.50
2019-05-30T05:18:50.869Z,9.60
2019-05-30T05:21:19.329Z,9.60
2019-05-30T05:23:47.815Z,9.70
2019-05-30T05:26:17.219Z,9.90
2019-05-30T05:28:46.005Z,10.00
2019-05-30T05:31:16.611Z,10.10
2019-05-30T05:33:56.343Z,10.30
2019-05-30T05:36:16.767Z,10.30
2019-05-30T05:38:45.448Z,10.40
2019-05-30T05:41:13.953Z,10.40
2019-05-30T05:43:42.513Z,10.50
2019-05-30T05:46:11.241Z,10.60
2019-05-30T05:48:39.848Z,10.70
2019-05-30T05:51:08.381Z,10.80
2019-05-30T05:53:36.944Z,10.80
2019-05-30T05:56:05.489Z,10.90
2019-05-30T05:58:33.981Z,10.90
2019-05-30T06:01:02.521Z,11.00
2019-05-30T06:03:31.109Z,11.10
2019-05-30T06:05:59.640Z,11.20
2019-05-30T06:08:28.137Z,11.30
2019-05-30T06:10:56.605Z,11.40
2019-05-30T06:13:25.093Z,11.50
2019-05-30T06:15:53.556Z,11.70
2019-05-30T06:18:24.125Z,11.90
2019-05-30T06:20:52.732Z,12.00
2019-05-30T06:23:21.551Z,12.20
2019-05-30T06:25:50.236Z,12.30
2019-05-30T06:28:19.884Z,12.60
2019-05-30T06:30:48.463Z,12.80
2019-05-30T06:33:17.003Z,13.00
2019-05-30T06:35:46.318Z,13.30
2019-05-30T06:38:14.793Z,13.40
2019-05-30T06:40:43.360Z,13.60
2019-05-30T06:43:11.892Z,13.90
2019-05-30T06:45:40.382Z,14.10
2019-05-30T06:48:09.165Z,14.10
2019-05-30T06:50:37.725Z,14.20
2019-05-30T06:53:06.332Z,14.30
2019-05-30T06:55:34.824Z,14.30
2019-05-30T06:58:03.352Z,14.60
2019-05-30T07:00:32.893Z,14.60
2019-05-30T07:03:01.539Z,14.90
2019-05-30T07:05:32.096Z,15.20
2019-05-30T07:08:00.283Z,15.60
2019-05-30T07:10:28.870Z,15.60
2019-05-30T07:12:57.407Z,15.60
2019-05-30T07:15:27.150Z,15.50
2019-05-30T07:17:55.824Z,15.60
2019-05-30T07:20:25.512Z,15.70
2019-05-30T07:22:54.061Z,15.70
2019-05-30T07:25:23.798Z,15.90
2019-05-30T07:27:52.483Z,15.80
2019-05-30T07:30:21.283Z,15.70
2019-05-30T07:32:49.812Z,15.70
2019-05-30T07:35:19.046Z,15.60
2019-05-30T07:37:47.613Z,15.70
2019-05-30T07:40:19.503Z,15.80
2019-05-30T07:42:46.514Z,15.60
2019-05-30T07:45:16.516Z,15.80
2019-05-30T07:47:44.981Z,15.90
2019-05-30T07:50:13.606Z,16.10
2019-05-30T07:52:42.147Z,16.00
2019-05-30T07:55:11.849Z,16.40
2019-05-30T07:57:41.431Z,16.40
2019-05-30T08:00:12.659Z,16.30
2019-05-30T08:02:41.268Z,16.30
2019-05-30T08:05:23.496Z,16.30
2019-05-30T08:07:41.149Z,16.20
2019-05-30T08:10:10.136Z,16.40
2019-05-30T08:12:38.641Z,16.20
2019-05-30T08:15:09.143Z,16.50
2019-05-30T08:17:37.957Z,16.40
2019-05-30T08:20:07.359Z,16.20
2019-05-30T08:22:36.222Z,16.20
2019-05-30T08:25:09.033Z,16.40
2019-05-30T08:27:38.655Z,16.70
2019-05-30T08:30:12.030Z,16.90
2019-05-30T08:32:44.312Z,17.00
2019-05-30T08:35:16.908Z,17.30
2019-05-30T08:37:48.976Z,17.10
2019-05-30T08:40:20.796Z,17.40
2019-05-30T08:42:52.997Z,17.40
2019-05-30T08:45:25.012Z,17.50
2019-05-30T08:47:54.899Z,17.60
2019-05-30T08:50:23.701Z,17.40
2019-05-30T08:52:52.685Z,17.40
2019-05-30T08:55:21.765Z,17.60
2019-05-30T08:57:51.936Z,17.60
2019-05-30T09:00:21.735Z,17.80
2019-05-30T09:02:50.261Z,18.00
2019-05-30T09:05:18.968Z,18.00
2019-05-30T09:07:47.464Z,18.30
2019-05-30T09:10:16.336Z,18.40
2019-05-30T09:12:48.787Z,18.40
2019-05-30T09:15:16.742Z,18.20
2019-05-30T09:17:46.828Z,18.60
2019-05-30T09:20:15.908Z,18.50
2019-05-30T09:22:45.602Z,18.40
2019-05-30T09:25:15.868Z,18.50
2019-05-30T09:27:44.733Z,18.60
2019-05-30T09:30:14.996Z,18.50
2019-05-30T09:32:44.768Z,18.60
2019-05-30T09:35:15.653Z,19.10
2019-05-30T09:37:45.763Z,19.50
2019-05-30T09:40:15.263Z,19.20
2019-05-30T09:42:44.764Z,19.60
2019-05-30T09:45:16.315Z,20.00
2019-05-30T09:47:46.637Z,20.60
2019-05-30T09:50:18.803Z,20.30
2019-05-30T09:52:47.378Z,20.40
2019-05-30T09:55:16.452Z,20.40
2019-05-30T09:57:45.883Z,20.90
2019-05-30T10:00:19.765Z,21.10
2019-05-30T10:02:48.755Z,20.40
2019-05-30T10:05:18.244Z,20.30
2019-05-30T10:07:47.551Z,19.50
2019-05-30T10:10:17.037Z,19.40
2019-05-30T10:12:46.794Z,19.20
2019-05-30T10:15:16.291Z,18.80
2019-05-30T10:17:46.297Z,18.90
2019-05-30T10:20:16.964Z,19.70
2019-05-30T10:22:47.125Z,20.10
2019-05-30T10:25:15.785Z,20.40
2019-05-30T10:27:46.268Z,20.10
2019-05-30T10:30:14.862Z,20.10
2019-05-30T10:32:43.430Z,20.40
2019-05-30T10:35:12.235Z,20.60
2019-05-30T10:37:40.963Z,21.00
2019-05-30T10:40:10.341Z,20.70
2019-05-30T10:42:38.934Z,20.80
2019-05-30T10:45:09.092Z,20.30
2019-05-30T10:47:37.656Z,20.40
2019-05-30T10:50:10.334Z,20.60
2019-05-30T10:52:38.818Z,21.00
2019-05-30T10:55:10.952Z,21.00
2019-05-30T10:57:39.452Z,20.60
2019-05-30T11:00:16.072Z,20.40
2019-05-30T11:02:46.063Z,20.50
2019-05-30T11:05:15.323Z,20.50
2019-05-30T11:08:03.937Z,19.90
2019-05-30T11:10:37.266Z,20.00
2019-05-30T11:13:07.876Z,20.40
2019-05-30T11:15:36.479Z,20.00
2019-05-30T11:18:05.293Z,19.80
2019-05-30T11:20:33.967Z,19.90
2019-05-30T11:23:02.497Z,20.20
2019-05-30T11:25:32.531Z,20.50
2019-05-30T11:28:01.078Z,20.90
2019-05-30T11:30:29.817Z,20.30
2019-05-30T11:32:59.480Z,20.00
2019-05-30T11:35:28.099Z,19.90
2019-05-30T11:37:57.261Z,20.20
2019-05-30T11:40:25.975Z,20.80
2019-05-30T11:42:55.491Z,21.10
2019-05-30T11:45:24.324Z,21.20
2019-05-30T11:47:53.843Z,21.50
2019-05-30T11:50:24.036Z,21.40
2019-05-30T11:52:53.688Z,21.00
2019-05-30T11:55:22.405Z,21.10
2019-05-30T11:57:51.958Z,21.50
2019-05-30T12:00:21.157Z,21.50
2019-05-30T12:02:50.219Z,21.40
2019-05-30T12:05:19.103Z,21.50
2019-05-30T12:07:47.648Z,20.60
2019-05-30T12:10:18.076Z,20.40
2019-05-30T12:12:46.689Z,20.40
2019-05-30T12:15:15.493Z,20.70
2019-05-30T12:17:44.029Z,20.80
2019-05-30T12:20:12.949Z,20.50
2019-05-30T12:22:41.488Z,20.60
2019-05-30T12:25:10.244Z,20.70
2019-05-30T12:27:38.780Z,20.40
2019-05-30T12:30:08.413Z,20.40
2019-05-30T12:32:37.061Z,20.80
2019-05-30T12:35:07.185Z,20.60
2019-05-30T12:37:50.267Z,20.00
2019-05-30T12:40:08.302Z,20.20
2019-05-30T12:42:36.824Z,20.30
2019-05-30T12:45:09.013Z,20.20
2019-05-30T12:47:37.620Z,20.10
2019-05-30T12:50:08.317Z,20.50
2019-05-30T12:52:36.785Z,20.30
2019-05-30T12:55:09.823Z,20.10
2019-05-30T12:57:38.434Z,19.70
2019-05-30T13:00:16.635Z,19.70
2019-05-30T13:02:39.628Z,19.90
2019-05-30T13:05:08.951Z,20.10
2019-05-30T13:07:37.417Z,20.10
2019-05-30T13:10:07.793Z,20.10
2019-05-30T13:12:36.324Z,20.10
2019-05-30T13:15:06.987Z,20.10
2019-05-30T13:17:35.593Z,20.20
2019-05-30T13:20:07.905Z,20.80
2019-05-30T13:22:36.580Z,21.20
2019-05-30T13:25:10.344Z,21.40
2019-05-30T13:27:39.018Z,22.30
2019-05-30T13:30:09.712Z,22.80
2019-05-30T13:32:38.182Z,22.90
2019-05-30T13:35:07.667Z,21.60
2019-05-30T13:37:36.309Z,21.50
2019-05-30T13:40:24.274Z,21.40
2019-05-30T13:42:40.286Z,21.40
2019-05-30T13:45:10.947Z,21.80
2019-05-30T13:47:39.549Z,22.00
2019-05-30T13:50:13.443Z,22.10
2019-05-30T13:52:41.010Z,22.20
2019-05-30T13:55:10.357Z,21.90
2019-05-30T13:57:39.095Z,22.00
2019-05-30T14:00:10.732Z,22.20
2019-05-30T14:02:39.387Z,23.10
2019-05-30T14:05:08.845Z,25.50
2019-05-30T14:07:37.329Z,25.40
2019-05-30T14:10:08.590Z,24.50
2019-05-30T14:12:37.380Z,22.90
2019-05-30T14:15:13.971Z,22.40
2019-05-30T14:17:40.961Z,21.30
2019-05-30T14:20:11.330Z,21.20
2019-05-30T14:22:40.051Z,21.10
2019-05-30T14:25:11.576Z,20.70
2019-05-30T14:27:40.352Z,20.70
2019-05-30T14:30:11.202Z,20.80
2019-05-30T14:32:39.841Z,20.80
2019-05-30T14:35:11.711Z,20.70
2019-05-30T14:37:40.391Z,21.00
2019-05-30T14:40:12.909Z,21.10
2019-05-30T14:42:41.602Z,20.60
2019-05-30T14:45:12.565Z,20.70
2019-05-30T14:47:41.213Z,20.80
2019-05-30T14:50:11.355Z,20.70
2019-05-30T14:52:39.996Z,20.20
2019-05-30T14:55:09.252Z,20.00
2019-05-30T14:57:38.151Z,19.90
2019-05-30T15:00:13.589Z,20.10
2019-05-30T15:02:42.795Z,20.70
2019-05-30T15:05:13.725Z,20.40
2019-05-30T15:07:42.810Z,20.20
2019-05-30T15:10:12.765Z,20.00
2019-05-30T15:12:41.517Z,20.40
2019-05-30T15:15:14.154Z,21.10
2019-05-30T15:17:40.759Z,21.40
2019-05-30T15:20:10.599Z,21.20
2019-05-30T15:22:40.060Z,21.00
2019-05-30T15:25:10.058Z,20.40
2019-05-30T15:27:38.819Z,20.60
2019-05-30T15:30:10.559Z,20.60
2019-05-30T15:32:39.344Z,20.60
2019-05-30T15:35:08.831Z,20.70
2019-05-30T15:37:40.582Z,20.20
2019-05-30T15:40:08.870Z,19.90
2019-05-30T15:42:37.508Z,20.10
2019-05-30T15:45:08.085Z,20.10
2019-05-30T15:47:36.664Z,20.30
2019-05-30T15:50:06.235Z,20.40
2019-05-30T15:52:34.793Z,20.50
2019-05-30T15:55:04.069Z,20.60
2019-05-30T15:57:32.637Z,20.50
2019-05-30T16:00:01.112Z,20.30
2019-05-30T16:02:29.672Z,20.10
2019-05-30T16:04:58.141Z,20.30
2019-05-30T16:07:26.706Z,20.40
2019-05-30T16:09:55.232Z,20.40
2019-05-30T16:12:23.716Z,20.10
2019-05-30T16:14:52.181Z,19.90
2019-05-30T16:17:21.683Z,20.00
2019-05-30T16:19:50.327Z,20.10
2019-05-30T16:22:18.787Z,20.00
2019-05-30T16:24:47.279Z,19.80
2019-05-30T16:27:15.859Z,19.70
2019-05-30T16:29:44.418Z,19.90
2019-05-30T16:32:13.782Z,20.10
2019-05-30T16:34:42.455Z,20.40
2019-05-30T16:37:10.945Z,20.50
2019-05-30T16:39:39.509Z,20.00
2019-05-30T16:42:07.988Z,19.60
2019-05-30T16:44:36.544Z,19.40
2019-05-30T16:47:05.008Z,19.50
2019-05-30T16:49:33.501Z,19.50
2019-05-30T16:52:01.957Z,19.80
2019-05-30T16:54:30.447Z,19.80
2019-05-30T16:56:59.769Z,19.80
2019-05-30T16:59:28.260Z,19.50
2019-05-30T17:01:58.503Z,19.30
2019-05-30T17:04:27.303Z,19.40
2019-05-30T17:06:55.847Z,19.50
2019-05-30T17:09:24.337Z,19.20
2019-05-30T17:11:52.894Z,18.80
2019-05-30T17:14:21.837Z,18.80
2019-05-30T17:16:50.389Z,18.90
2019-05-30T17:19:18.893Z,18.80
2019-05-30T17:21:47.416Z,18.80
2019-05-30T17:24:16.960Z,18.90
2019-05-30T17:26:45.536Z,18.80
2019-05-30T17:29:14.101Z,18.80
2019-05-30T17:31:42.636Z,18.70
2019-05-30T17:34:11.120Z,18.70
2019-05-30T17:36:39.589Z,18.60
2019-05-30T17:39:08.796Z,18.50
2019-05-30T17:41:37.413Z,18.50
2019-05-30T17:44:05.975Z,18.40
2019-05-30T17:46:34.509Z,18.40
2019-05-30T17:49:03.003Z,18.40
2019-05-30T17:51:31.538Z,18.10
2019-05-30T17:54:00.096Z,18.10
2019-05-30T17:56:28.562Z,18.10
2019-05-30T17:58:57.054Z,18.00
2019-05-30T18:01:26.307Z,18.00
2019-05-30T18:03:54.866Z,17.90
2019-05-30T18:06:24.366Z,17.80
2019-05-30T18:08:53.012Z,17.80
2019-05-30T18:11:22.814Z,17.80
2019-05-30T18:13:51.408Z,17.80
2019-05-30T18:16:21.042Z,17.70
2019-05-30T18:18:49.604Z,17.60
2019-05-30T18:21:18.168Z,17.60
2019-05-30T18:23:46.629Z,17.50
2019-05-30T18:26:15.319Z,17.50
2019-05-30T18:28:43.840Z,17.50
2019-05-30T18:31:12.763Z,17.40
2019-05-30T18:33:41.306Z,17.50
2019-05-30T18:36:09.868Z,17.40
2019-05-30T18:38:38.336Z,17.40
2019-05-30T18:41:11.540Z,17.40
2019-05-30T18:43:37.213Z,17.30
2019-05-30T18:46:05.776Z,17.30
2019-05-30T18:48:34.321Z,17.20
2019-05-30T18:51:02.962Z,17.10
2019-05-30T18:53:32.532Z,17.00
2019-05-30T18:56:01.056Z,16.90
2019-05-30T18:58:29.521Z,16.80
2019-05-30T19:00:58.004Z,16.80
2019-05-30T19:03:28.411Z,16.70
2019-05-30T19:05:57.136Z,16.70
2019-05-30T19:08:25.779Z,16.60
2019-05-30T19:10:54.350Z,16.50
2019-05-30T19:13:22.894Z,16.50
2019-05-30T19:15:51.384Z,16.40
2019-05-30T19:18:19.845Z,16.30
2019-05-30T19:20:48.403Z,16.20
2019-05-30T19:23:16.869Z,16.10
2019-05-30T19:25:45.463Z,16.00
2019-05-30T19:28:13.927Z,16.00
2019-05-30T19:30:42.434Z,15.90
2019-05-30T19:33:10.986Z,15.80
2019-05-30T19:35:39.545Z,15.80
2019-05-30T19:38:08.101Z,15.70
2019-05-30T19:40:37.905Z,15.60
2019-05-30T19:43:06.585Z,15.50
2019-05-30T19:45:36.161Z,15.40
2019-05-30T19:48:04.868Z,15.30
2019-05-30T19:50:34.561Z,15.20
2019-05-30T19:53:03.155Z,15.10
2019-05-30T19:55:31.625Z,15.10
2019-05-30T19:58:00.180Z,15.00
2019-05-30T20:00:29.893Z,14.90
2019-05-30T20:02:58.437Z,14.80
2019-05-30T20:05:26.904Z,14.70
2019-05-30T20:07:55.482Z,14.70
2019-05-30T20:10:24.012Z,14.70
2019-05-30T20:12:52.524Z,14.60
2019-05-30T20:15:21.720Z,14.60
2019-05-30T20:17:50.205Z,14.50
2019-05-30T20:20:18.741Z,14.50
2019-05-30T20:22:47.301Z,14.40
2019-05-30T20:25:16.104Z,14.30
2019-05-30T20:27:44.593Z,14.30
2019-05-30T20:30:16.295Z,14.30
2019-05-30T20:32:44.872Z,14.30
2019-05-30T20:35:14.557Z,14.30
2019-05-30T20:37:43.126Z,14.30
2019-05-30T20:40:12.126Z,14.40
2019-05-30T20:42:41.066Z,14.50
2019-05-30T20:45:10.391Z,14.50
2019-05-30T20:47:40.683Z,14.40
2019-05-30T20:50:10.556Z,14.50
2019-05-30T20:52:41.840Z,14.60
2019-05-30T20:55:09.784Z,14.60
2019-05-30T20:57:38.435Z,14.60
2019-05-30T21:00:09.144Z,14.60
2019-05-30T21:02:38.750Z,14.60
2019-05-30T21:05:08.393Z,14.50
2019-05-30T21:07:37.782Z,14.50
2019-05-30T21:10:08.953Z,14.50
2019-05-30T21:12:41.256Z,14.50
2019-05-30T21:15:08.809Z,14.50
2019-05-30T21:17:37.833Z,14.50
2019-05-30T21:20:11.327Z,14.50
2019-05-30T21:22:40.109Z,14.60
2019-05-30T21:25:08.873Z,14.60
2019-05-30T21:27:38.850Z,14.60
2019-05-30T21:30:07.977Z,14.60
2019-05-30T21:32:37.507Z,14.60
2019-05-30T21:35:07.600Z,14.50
2019-05-30T21:37:37.513Z,14.60
2019-05-30T21:40:09.274Z,14.60
2019-05-30T21:42:55.379Z,14.60
2019-05-30T21:45:10.244Z,14.60
2019-05-30T21:47:38.818Z,14.60
2019-05-30T21:50:08.998Z,14.60
2019-05-30T21:52:37.537Z,14.50
2019-05-30T21:55:06.693Z,14.50
2019-05-30T21:57:35.157Z,14.60
2019-05-30T22:00:12.870Z,14.60
2019-05-30T22:02:44.484Z,14.60
2019-05-30T22:05:13.232Z,14.60
2019-05-30T22:07:42.936Z,14.60
2019-05-30T22:10:11.700Z,14.60
2019-05-30T22:12:41.351Z,14.60
2019-05-30T22:15:10.376Z,14.60
2019-05-30T22:17:38.912Z,14.60
2019-05-30T22:20:07.812Z,14.60
2019-05-30T22:22:36.360Z,14.60
2019-05-30T22:25:06.085Z,14.50
2019-05-30T22:27:34.552Z,14.50
2019-05-30T22:30:03.463Z,14.50
2019-05-30T22:32:32.006Z,14.50
2019-05-30T22:35:01.843Z,14.50
2019-05-30T22:37:30.316Z,14.50
2019-05-30T22:39:58.896Z,14.50
2019-05-30T22:42:27.365Z,14.50
2019-05-30T22:44:56.560Z,14.50
2019-05-30T22:47:25.101Z,14.50
2019-05-30T22:49:53.596Z,14.40
2019-05-30T22:52:22.146Z,14.50
2019-05-30T22:54:51.247Z,14.40
2019-05-30T22:57:19.788Z,14.40
2019-05-30T22:59:48.833Z,14.40
2019-05-30T23:02:17.354Z,14.40
2019-05-30T23:04:46.027Z,14.40
2019-05-30T23:07:14.568Z,14.40
2019-05-30T23:09:43.249Z,14.40
2019-05-30T23:12:11.787Z,14.40
2019-05-30T23:14:40.336Z,14.50
2019-05-30T23:17:08.873Z,14.40
2019-05-30T23:19:37.334Z,14.40
2019-05-30T23:22:05.893Z,14.40
2019-05-30T23:24:34.358Z,14.40
2019-05-30T23:27:02.920Z,14.40
2019-05-30T23:29:31.384Z,14.40
2019-05-30T23:31:59.879Z,14.40
2019-05-30T23:34:28.352Z,14.30
2019-05-30T23:36:56.914Z,14.40
2019-05-30T23:39:25.461Z,14.40
2019-05-30T23:41:55.102Z,14.40
2019-05-30T23:44:23.766Z,14.30
2019-05-30T23:46:53.351Z,14.30
2019-05-30T23:49:21.994Z,14.30
2019-05-30T23:51:51.845Z,14.30
2019-05-30T23:54:20.513Z,14.30
2019-05-30T23:56:50.387Z,14.30
2019-05-30T23:59:19.046Z,14.30
